Terminal Aerodrome Forecast
Issued by NWS Duluth, MN

Home | Current Version | Previous Version | Text Only | Print | Product List | Glossary On
Versions: 1 2 3 4 5 6 7 8 9 10 11 12 13 14 15 16 17 18 19 20 21 22 23 24
000
FTUS43 KDLH 270500 AAA
TAFINL
TAF AMD
KINL 270546Z 2706/2806 32003KT P6SM OVC009
      TEMPO 2709/2713 4SM BR OVC006
     FM271600 17005KT P6SM OVC012
     FM272100 16006KT P6SM SCT015 BKN080=

USA.gov is the U.S. government's official web portal to all federal, state and local government web resources and services.